Time;durP1;ratioP1;P1;durP2;ratioP2;P2;SDS_P1;SDS_P2;PMS_P1;PMS_P2;Temp;Humidity;BMP_temperature;BMP_pressure;BME280_temperature;BME280_humidity;BME280_pressure;Samples;Min_cycle;Max_cycle;Signal;HPM_P1;HPM_P2
2022/03/07 00:02:11;;;;;;;7.80;2.00;;;2.70;99.90;;;;;;5094963;28;20039;-81
2022/03/07 00:04:37;;;;;;;5.00;2.05;;;2.70;99.90;;;;;;5094668;28;20046;-81
2022/03/07 00:07:03;;;;;;;8.13;2.30;;;2.60;99.90;;;;;;5077601;28;20134;-81
2022/03/07 00:09:28;;;;;;;5.70;2.03;;;2.60;99.90;;;;;;5077948;28;20035;-81
2022/03/07 00:11:54;;;;;;;7.45;2.45;;;2.60;99.90;;;;;;5077911;28;20040;-81
2022/03/07 00:14:20;;;;;;;5.28;2.28;;;2.50;99.90;;;;;;5077207;28;20488;-81
2022/03/07 00:16:45;;;;;;;7.43;2.83;;;2.50;99.90;;;;;;5094573;28;20401;-82
2022/03/07 00:19:11;;;;;;;8.55;2.90;;;2.50;99.90;;;;;;5094440;28;20439;-82
2022/03/07 00:21:37;;;;;;;5.75;2.47;;;2.40;99.90;;;;;;5094039;28;20055;-82
2022/03/07 00:24:07;;;;;;;10.63;2.67;;;2.40;99.90;;;;;;5094144;28;20050;-81
2022/03/07 00:26:33;;;;;;;7.05;2.70;;;2.40;99.90;;;;;;5094886;28;20518;-82
2022/03/07 00:28:59;;;;;;;7.22;2.60;;;2.40;99.90;;;;;;5077334;28;20494;-82
2022/03/07 00:31:24;;;;;;;5.80;2.47;;;2.30;99.90;;;;;;5094012;28;20058;-82
2022/03/07 00:33:51;;;;;;;4.55;2.28;;;2.30;99.90;;;;;;5094358;28;20062;-82
2022/03/07 00:36:18;;;;;;;5.28;1.77;;;2.30;99.90;;;;;;5076729;28;20043;-82
2022/03/07 00:38:43;;;;;;;5.80;2.30;;;2.20;99.90;;;;;;5077394;28;20047;-82
2022/03/07 00:41:10;;;;;;;6.30;2.33;;;2.20;99.90;;;;;;5076561;28;20528;-82
2022/03/07 00:43:37;;;;;;;4.85;2.20;;;2.20;99.90;;;;;;5093899;28;20059;-82
2022/03/07 00:46:02;;;;;;;4.82;2.00;;;2.20;99.90;;;;;;5077094;28;20387;-82
2022/03/07 00:48:28;;;;;;;7.40;2.63;;;2.10;99.90;;;;;;5092164;28;20404;-82
2022/03/07 00:50:54;;;;;;;8.07;2.80;;;2.10;99.90;;;;;;5092268;28;20400;-81
2022/03/07 00:53:22;;;;;;;7.63;3.00;;;2.10;99.90;;;;;;5075871;28;20813;-82
2022/03/07 00:55:48;;;;;;;5.95;3.20;;;2.00;99.90;;;;;;5075253;28;20691;-82
2022/03/07 00:58:14;;;;;;;6.68;2.90;;;2.00;99.90;;;;;;5092295;28;20823;-81
2022/03/07 01:00:40;;;;;;;6.70;2.08;;;2.00;99.90;;;;;;5076759;28;20035;-81
2022/03/07 01:03:09;;;;;;;6.53;1.70;;;1.90;99.90;;;;;;5076483;28;20048;-81
2022/03/07 01:05:34;;;;;;;7.35;1.95;;;1.90;99.90;;;;;;5073225;28;20131;-82
2022/03/07 01:08:00;;;;;;;6.85;1.48;;;1.90;99.90;;;;;;5073381;28;20467;-81
2022/03/07 01:10:26;;;;;;;5.88;1.50;;;1.80;99.90;;;;;;5056475;28;20051;-81
2022/03/07 01:12:52;;;;;;;6.43;2.25;;;1.80;99.90;;;;;;5073207;28;20040;-81
2022/03/07 01:15:19;;;;;;;4.95;1.95;;;1.80;99.90;;;;;;5072913;28;20082;-81
2022/03/07 01:17:44;;;;;;;4.68;1.50;;;1.70;99.90;;;;;;5072441;28;20089;-81
2022/03/07 01:20:10;;;;;;;;;;;1.70;99.90;;;;;;5073403;28;20406;-81
2022/03/07 01:22:36;;;;;;;3.65;1.60;;;1.70;99.90;;;;;;5072296;28;20324;-81
2022/03/07 01:25:06;;;;;;;5.65;1.60;;;1.60;99.90;;;;;;5055156;28;20048;-81
2022/03/07 01:27:32;;;;;;;7.18;1.70;;;1.60;99.90;;;;;;5071717;28;20040;-81
2022/03/07 01:29:58;;;;;;;8.45;2.17;;;1.60;99.90;;;;;;5055089;28;20139;-81
2022/03/07 01:32:23;;;;;;;3.85;1.50;;;1.60;99.90;;;;;;5071545;28;20135;-81
2022/03/07 01:34:49;;;;;;;6.57;1.52;;;1.50;99.90;;;;;;5071931;28;20086;-82
2022/03/07 01:37:15;;;;;;;6.68;1.60;;;1.50;99.90;;;;;;5054928;28;20482;-81
2022/03/07 01:39:41;;;;;;;4.97;1.75;;;1.50;99.90;;;;;;5071878;28;20442;-81
2022/03/07 01:42:08;;;;;;;5.38;2.08;;;1.50;99.90;;;;;;5054414;28;20047;-82
2022/03/07 01:44:34;;;;;;;6.88;2.60;;;1.50;99.90;;;;;;5071786;28;20131;-81
2022/03/07 01:47:00;;;;;;;5.07;1.77;;;1.50;99.90;;;;;;5071887;28;20039;-81
2022/03/07 01:49:26;;;;;;;4.70;1.92;;;1.40;99.90;;;;;;5072763;28;20473;-82
2022/03/07 01:51:53;;;;;;;5.30;2.15;;;1.40;99.90;;;;;;5072330;28;20046;-81
2022/03/07 01:54:20;;;;;;;2.78;1.60;;;1.40;99.90;;;;;;5071737;28;20051;-81
2022/03/07 01:56:46;;;;;;;;;;;1.30;99.90;;;;;;5072676;28;20084;-82
2022/03/07 01:59:13;;;;;;;;;;;1.40;99.90;;;;;;5072424;28;19927;-82
2022/03/07 02:01:39;;;;;;;;;;;1.30;99.90;;;;;;5076949;28;19920;-81
2022/03/07 02:04:05;;;;;;;;;;;1.30;99.90;;;;;;5092980;28;19926;-81
2022/03/07 02:06:31;;;;;;;;;;;1.30;99.90;;;;;;5092838;28;19927;-81
2022/03/07 02:08:57;;;;;;;;;;;1.30;99.90;;;;;;5092940;28;19923;-81
2022/03/07 02:11:24;;;;;;;5.20;2.20;;;1.30;99.90;;;;;;5092030;28;19920;-82
2022/03/07 02:13:50;;;;;;;3.22;2.00;;;1.20;99.90;;;;;;5092302;28;20032;-81
2022/03/07 02:16:17;;;;;;;4.55;2.20;;;1.20;99.90;;;;;;5092440;28;20047;-82
2022/03/07 02:18:43;;;;;;;8.75;2.30;;;1.20;99.90;;;;;;5089692;28;20162;-82
2022/03/07 02:21:11;;;;;;;6.78;1.92;;;1.10;99.90;;;;;;5085798;28;20039;-81
2022/03/07 02:23:37;;;;;;;3.83;1.92;;;1.10;99.90;;;;;;5074543;28;20421;-82
2022/03/07 02:26:17;;;;;;;5.47;2.03;;;1.10;99.90;;;;;;5073876;28;20041;-81
2022/03/07 02:28:45;;;;;;;6.15;1.85;;;1.10;99.90;;;;;;5091860;28;20416;-82
2022/03/07 02:31:15;;;;;;;5.65;2.25;;;1.10;99.90;;;;;;5091586;28;20084;-82
2022/03/07 02:33:41;;;;;;;5.85;2.13;;;1.00;99.90;;;;;;5091967;28;20047;-81
2022/03/07 02:36:07;;;;;;;5.05;2.20;;;1.00;99.90;;;;;;5091842;28;20489;-81
2022/03/07 02:38:33;;;;;;;8.70;2.30;;;1.00;99.90;;;;;;5092066;28;20051;-81
2022/03/07 02:40:59;;;;;;;6.35;2.03;;;1.00;99.90;;;;;;5074802;28;20039;-82
2022/03/07 02:43:24;;;;;;;6.20;2.58;;;0.90;99.90;;;;;;5091324;28;20414;-81
2022/03/07 02:45:51;;;;;;;5.78;2.95;;;0.90;99.90;;;;;;5091395;28;20201;-82
2022/03/07 02:48:18;;;;;;;8.80;2.00;;;0.90;99.90;;;;;;5075099;28;20518;-82
2022/03/07 02:50:45;;;;;;;3.85;1.80;;;0.90;99.90;;;;;;5091645;28;20052;-81
2022/03/07 02:53:11;;;;;;;6.38;2.35;;;0.90;99.90;;;;;;5073874;28;20036;-82
2022/03/07 02:55:36;;;;;;;6.15;2.10;;;0.80;99.90;;;;;;5074978;28;20063;-81
2022/03/07 02:58:03;;;;;;;5.47;2.10;;;0.80;99.90;;;;;;5074940;28;20508;-81
2022/03/07 03:00:29;;;;;;;7.55;2.30;;;0.80;99.90;;;;;;5074482;28;20713;-82
2022/03/07 03:02:55;;;;;;;8.60;2.10;;;0.80;99.90;;;;;;5091004;28;20047;-81
2022/03/07 03:05:20;;;;;;;3.60;2.25;;;0.80;99.90;;;;;;5091264;28;20043;-82
2022/03/07 03:07:47;;;;;;;3.75;2.00;;;0.80;99.90;;;;;;5091248;28;20039;-81
2022/03/07 03:10:13;;;;;;;6.25;2.03;;;0.80;99.90;;;;;;5091014;28;20039;-82
2022/03/07 03:12:39;;;;;;;3.38;1.85;;;0.80;99.90;;;;;;5091379;28;20130;-81
2022/03/07 03:15:05;;;;;;;4.90;2.13;;;0.80;99.90;;;;;;5091192;28;20126;-81
2022/03/07 03:17:31;;;;;;;7.53;2.20;;;0.70;99.90;;;;;;5090841;28;20049;-82
2022/03/07 03:19:57;;;;;;;5.60;2.00;;;0.70;99.90;;;;;;5090599;28;20472;-81
2022/03/07 03:22:22;;;;;;;6.95;2.20;;;0.70;99.90;;;;;;5090946;28;20048;-81
2022/03/07 03:24:49;;;;;;;6.45;2.50;;;0.70;99.90;;;;;;5090756;28;20055;-81
2022/03/07 03:27:15;;;;;;;6.90;2.42;;;0.70;99.90;;;;;;5074090;28;20097;-81
2022/03/07 03:29:41;;;;;;;6.35;2.05;;;0.60;99.90;;;;;;5073920;28;20047;-82
2022/03/07 03:32:07;;;;;;;5.30;1.98;;;0.70;99.90;;;;;;5091451;28;20459;-82
2022/03/07 03:34:33;;;;;;;;;;;0.60;99.90;;;;;;5091335;28;20138;-82
2022/03/07 03:36:59;;;;;;;5.65;1.80;;;0.60;99.90;;;;;;5091128;28;20019;-82
2022/03/07 03:39:25;;;;;;;5.00;1.70;;;0.60;99.90;;;;;;5074273;28;20055;-82
2022/03/07 03:41:50;;;;;;;4.75;1.83;;;0.60;99.90;;;;;;5090539;28;20505;-82
2022/03/07 03:44:16;;;;;;;5.35;2.10;;;0.50;99.90;;;;;;5090913;28;20062;-82
2022/03/07 03:46:42;;;;;;;7.75;2.30;;;0.50;99.90;;;;;;5074074;28;20054;-83
2022/03/07 03:49:08;;;;;;;4.68;2.17;;;0.50;99.90;;;;;;5073700;28;20035;-82
2022/03/07 03:51:34;;;;;;;5.45;2.20;;;0.50;99.90;;;;;;5090726;28;20038;-82
2022/03/07 03:54:00;;;;;;;7.07;2.10;;;0.50;99.90;;;;;;5091077;28;20562;-82
2022/03/07 03:56:26;;;;;;;4.55;1.90;;;0.50;99.90;;;;;;5074120;28;20071;-83
2022/03/07 03:58:51;;;;;;;6.45;2.45;;;0.50;99.90;;;;;;5090517;28;20078;-82
2022/03/07 04:01:17;;;;;;;4.47;2.28;;;0.50;99.90;;;;;;5090948;28;20040;-82
2022/03/07 04:03:43;;;;;;;7.13;2.17;;;0.40;99.90;;;;;;5074026;28;20055;-82
2022/03/07 04:06:09;;;;;;;5.05;1.95;;;0.40;99.90;;;;;;5090380;28;20479;-83
2022/03/07 04:08:49;;;;;;;5.75;2.03;;;0.40;99.90;;;;;;5090732;28;20067;-82
2022/03/07 04:11:15;;;;;;;4.68;2.40;;;0.30;99.90;;;;;;5090854;28;20052;-82
2022/03/07 04:13:41;;;;;;;10.63;2.80;;;0.30;99.90;;;;;;5090690;28;20044;-82
2022/03/07 04:16:07;;;;;;;4.25;2.63;;;0.30;99.90;;;;;;5073972;28;20046;-83
2022/03/07 04:18:33;;;;;;;6.00;2.42;;;0.30;99.90;;;;;;5094193;28;20043;-82
2022/03/07 04:20:58;;;;;;;5.65;2.67;;;0.30;99.90;;;;;;5077077;28;20127;-82
2022/03/07 04:23:24;;;;;;;5.20;2.65;;;0.30;99.90;;;;;;5094412;28;20130;-82
2022/03/07 04:25:50;;;;;;;4.43;2.33;;;0.30;99.90;;;;;;5094125;28;20130;-82
2022/03/07 04:28:16;;;;;;;6.93;2.63;;;0.30;99.90;;;;;;5094170;28;20079;-82
2022/03/07 04:30:42;;;;;;;8.00;2.95;;;0.20;99.90;;;;;;5093531;28;20055;-82
2022/03/07 04:33:08;;;;;;;8.23;3.25;;;0.20;99.90;;;;;;5094623;28;20410;-83
2022/03/07 04:35:35;;;;;;;7.82;3.20;;;0.20;99.90;;;;;;5077488;28;20042;-82
2022/03/07 04:38:01;;;;;;;6.43;3.63;;;0.20;99.90;;;;;;5093745;28;20130;-83
2022/03/07 04:40:28;;;;;;;8.07;2.75;;;0.10;99.90;;;;;;5093623;28;20577;-82
2022/03/07 04:42:56;;;;;;;7.05;3.03;;;0.10;99.90;;;;;;5094128;28;20555;-82
2022/03/07 04:45:22;;;;;;;6.55;3.10;;;0.10;99.90;;;;;;5093758;28;20049;-82
2022/03/07 04:47:48;;;;;;;7.82;3.80;;;0.10;99.90;;;;;;5076823;28;20039;-82
2022/03/07 04:50:14;;;;;;;7.32;3.50;;;0.10;99.90;;;;;;5076777;28;20039;-82
2022/03/07 04:52:42;;;;;;;6.78;2.72;;;0.10;99.90;;;;;;5076809;28;20058;-82
2022/03/07 04:55:09;;;;;;;7.38;3.10;;;0.10;99.90;;;;;;5093459;28;20078;-82
2022/03/07 04:57:35;;;;;;;7.25;3.33;;;0.10;99.90;;;;;;5093549;28;20051;-82
2022/03/07 05:00:01;;;;;;;7.47;3.22;;;0.10;99.90;;;;;;5094071;28;20044;-82
2022/03/07 05:02:27;;;;;;;11.80;4.18;;;0.10;99.90;;;;;;5093747;28;20122;-82
2022/03/07 05:04:53;;;;;;;6.53;3.47;;;0.10;99.90;;;;;;5093263;28;20545;-82
2022/03/07 05:07:18;;;;;;;7.22;3.45;;;0.10;99.90;;;;;;5093802;28;20055;-81
2022/03/07 05:09:45;;;;;;;5.05;3.20;;;0.10;99.90;;;;;;5093389;28;20043;-82
2022/03/07 05:12:11;;;;;;;7.57;3.50;;;0.00;99.90;;;;;;5093056;28;20944;-82
2022/03/07 05:14:36;;;;;;;7.13;3.33;;;0.00;99.90;;;;;;5075393;28;20043;-82
2022/03/07 05:17:02;;;;;;;6.72;3.42;;;0.00;99.90;;;;;;5091942;28;20031;-82
2022/03/07 05:19:28;;;;;;;6.32;3.15;;;0.00;99.90;;;;;;5075650;28;20044;-82
2022/03/07 05:21:53;;;;;;;8.63;3.10;;;0.00;99.90;;;;;;5075333;28;20043;-82
2022/03/07 05:24:19;;;;;;;9.38;3.33;;;0.00;99.90;;;;;;5092005;28;20040;-82
2022/03/07 05:26:44;;;;;;;8.10;3.35;;;-0.10;99.90;;;;;;5080912;28;20044;-82
2022/03/07 05:29:10;;;;;;;6.47;3.42;;;-0.10;99.90;;;;;;5053837;28;20060;-82
2022/03/07 05:31:36;;;;;;;5.45;3.10;;;-0.10;99.90;;;;;;5071403;28;20055;-82
2022/03/07 05:34:02;;;;;;;8.43;3.47;;;-0.10;99.90;;;;;;5072012;28;20044;-82
2022/03/07 05:36:27;;;;;;;6.95;3.53;;;-0.10;99.90;;;;;;5071542;28;20162;-82
2022/03/07 05:38:53;;;;;;;7.55;3.80;;;-0.10;99.90;;;;;;5054812;28;20467;-82
2022/03/07 05:41:19;;;;;;;5.95;3.13;;;-0.10;99.90;;;;;;5071362;28;20047;-82
2022/03/07 05:43:44;;;;;;;6.03;3.20;;;-0.10;99.90;;;;;;5071536;28;20472;-82
2022/03/07 05:46:10;;;;;;;6.82;3.00;;;-0.20;99.90;;;;;;5055118;28;20047;-82
2022/03/07 05:48:37;;;;;;;6.97;3.70;;;-0.10;99.90;;;;;;5071222;28;20044;-82
2022/03/07 05:51:02;;;;;;;;;;;-0.20;99.90;;;;;;5071881;28;20051;-82
2022/03/07 05:53:28;;;;;;;5.82;3.70;;;-0.20;99.90;;;;;;5071308;28;19920;-82
2022/03/07 05:55:54;;;;;;;7.63;3.65;;;-0.20;99.90;;;;;;5071298;28;20450;-82
2022/03/07 05:58:19;;;;;;;8.45;4.55;;;-0.20;99.90;;;;;;5071260;28;20394;-82
2022/03/07 06:00:45;;;;;;;7.25;4.18;;;-0.20;99.90;;;;;;5071538;28;20436;-82
2022/03/07 06:03:11;;;;;;;5.95;4.57;;;-0.30;99.90;;;;;;5070783;28;20059;-82
2022/03/07 06:05:37;;;;;;;9.30;4.25;;;-0.30;99.90;;;;;;5070936;28;20077;-82
2022/03/07 06:08:05;;;;;;;11.35;5.30;;;-0.40;99.90;;;;;;5071258;28;20121;-83
2022/03/07 06:10:31;;;;;;;8.57;4.55;;;-0.40;99.90;;;;;;5070822;28;20058;-83
2022/03/07 06:12:57;;;;;;;6.85;5.07;;;-0.40;99.90;;;;;;5070544;28;20043;-83
2022/03/07 06:15:23;;;;;;;8.13;4.43;;;-0.40;99.90;;;;;;5071113;28;20048;-83
2022/03/07 06:17:56;;;;;;;7.72;4.72;;;-0.40;99.90;;;;;;5070865;28;20048;-83
2022/03/07 06:20:24;;;;;;;8.25;5.05;;;-0.30;99.90;;;;;;5071197;28;20086;-83
2022/03/07 06:22:50;;;;;;;11.32;4.90;;;-0.30;99.90;;;;;;5070610;28;20396;-83
2022/03/07 06:25:16;;;;;;;8.95;4.80;;;-0.30;99.90;;;;;;5053726;28;20494;-83
2022/03/07 06:27:42;;;;;;;7.65;4.85;;;-0.30;99.90;;;;;;5089909;28;20035;-83
2022/03/07 06:30:08;;;;;;;9.30;4.82;;;-0.30;99.90;;;;;;5090674;28;20052;-83
2022/03/07 06:32:38;;;;;;;7.72;4.75;;;-0.30;99.90;;;;;;5090797;28;20055;-84
2022/03/07 06:35:05;;;;;;;7.88;4.82;;;-0.30;99.90;;;;;;5090493;28;20042;-83
2022/03/07 06:37:31;;;;;;;6.75;4.78;;;-0.30;99.90;;;;;;5091064;28;20044;-83
2022/03/07 06:39:57;;;;;;;8.60;4.97;;;-0.30;99.90;;;;;;5074018;28;20055;-83
2022/03/07 06:42:23;;;;;;;10.23;5.10;;;-0.20;99.90;;;;;;5090491;28;20051;-83
2022/03/07 06:44:48;;;;;;;10.18;5.53;;;-0.20;99.90;;;;;;5090787;28;20047;-83
2022/03/07 06:47:16;;;;;;;11.15;5.70;;;-0.20;99.90;;;;;;5074273;28;20047;-83
2022/03/07 06:49:42;;;;;;;12.13;6.63;;;-0.20;99.90;;;;;;5091561;28;20051;-83
2022/03/07 06:52:08;;;;;;;11.82;6.30;;;-0.20;99.90;;;;;;5074920;28;20379;-83
2022/03/07 06:54:34;;;;;;;12.95;6.60;;;-0.20;99.90;;;;;;5075019;28;20097;-83
2022/03/07 06:56:59;;;;;;;9.23;6.43;;;-0.20;99.90;;;;;;5091438;28;20039;-82
2022/03/07 06:59:25;;;;;;;13.80;6.57;;;-0.10;99.90;;;;;;5091263;28;20129;-82
2022/03/07 07:01:51;;;;;;;12.65;6.45;;;-0.10;99.90;;;;;;5091321;28;20118;-83
2022/03/07 07:04:18;;;;;;;9.38;6.03;;;-0.10;99.90;;;;;;5091167;28;20123;-80
2022/03/07 07:06:43;;;;;;;11.90;6.43;;;-0.10;99.90;;;;;;5104135;27;20039;-84
2022/03/07 07:09:09;;;;;;;12.90;6.13;;;-0.10;99.90;;;;;;5093728;27;20095;-83
2022/03/07 07:11:35;;;;;;;10.88;6.25;;;0.00;99.90;;;;;;5094592;27;20042;-83
2022/03/07 07:14:01;;;;;;;15.23;7.00;;;0.00;99.90;;;;;;5111381;28;20121;-83
2022/03/07 07:16:27;;;;;;;11.45;5.97;;;0.10;99.90;;;;;;5111694;27;20146;-83
2022/03/07 07:18:52;;;;;;;11.68;6.43;;;0.10;99.90;;;;;;5094450;28;20039;-84
2022/03/07 07:21:18;;;;;;;10.20;7.30;;;0.20;99.90;;;;;;5111210;28;20043;-84
2022/03/07 07:23:44;;;;;;;11.90;7.28;;;0.20;99.90;;;;;;5111112;28;20058;-84
2022/03/07 07:26:10;;;;;;;11.23;7.38;;;0.30;99.90;;;;;;5105307;28;20047;-82
2022/03/07 07:28:36;;;;;;;11.25;7.05;;;0.30;99.90;;;;;;5090735;28;20128;-82
2022/03/07 07:31:02;;;;;;;15.45;7.65;;;0.40;99.90;;;;;;5074605;28;20048;-82
2022/03/07 07:33:28;;;;;;;13.70;7.43;;;0.50;99.90;;;;;;5091067;28;20471;-82
2022/03/07 07:35:54;;;;;;;11.07;7.35;;;0.50;99.90;;;;;;5090826;28;20147;-82
2022/03/07 07:38:21;;;;;;;;;;;0.50;99.90;;;;;;5091813;28;20039;-82
2022/03/07 07:40:50;;;;;;;;;;;0.60;99.90;;;;;;5091549;28;20381;-83
2022/03/07 07:43:16;;;;;;;;;;;0.70;99.90;;;;;;5074772;28;19930;-83
2022/03/07 07:45:42;;;;;;;;;;;0.80;99.90;;;;;;5091330;28;19967;-84
2022/03/07 07:48:08;;;;;;;;;;;0.80;99.90;;;;;;5091315;28;19978;-84
2022/03/07 07:50:34;;;;;;;;;;;0.90;99.90;;;;;;5074972;28;19963;-83
2022/03/07 07:52:59;;;;;;;;;;;0.90;99.90;;;;;;5095157;28;20751;-82
2022/03/07 07:55:25;;;;;;;;;;;1.00;99.90;;;;;;5095360;28;19926;-83
2022/03/07 07:57:51;;;;;;;;;;;1.10;99.90;;;;;;5094897;28;19930;-83
2022/03/07 08:00:19;;;;;;;14.52;6.22;;;1.20;99.90;;;;;;5094835;28;19919;-83
2022/03/07 08:02:49;;;;;;;11.50;6.28;;;1.30;99.90;;;;;;5094388;28;20047;-82
2022/03/07 08:05:16;;;;;;;11.43;6.38;;;1.40;99.90;;;;;;5095281;28;20047;-82
2022/03/07 08:07:43;;;;;;;12.73;6.50;;;1.50;99.90;;;;;;5094891;28;20053;-82
2022/03/07 08:10:09;;;;;;;;;;;1.60;99.90;;;;;;5094728;28;20048;-83
2022/03/07 08:12:35;;;;;;;9.63;4.15;;;1.70;99.90;;;;;;5094398;28;19924;-82
2022/03/07 08:15:01;;;;;;;14.05;3.90;;;1.80;99.90;;;;;;5077828;28;20097;-82
2022/03/07 08:17:26;;;;;;;13.77;4.63;;;2.00;99.90;;;;;;5094473;28;20044;-83
2022/03/07 08:19:52;;;;;;;10.57;4.50;;;2.10;99.90;;;;;;5092842;28;20392;-82
2022/03/07 08:22:17;;;;;;;11.83;4.03;;;2.20;99.90;;;;;;5093724;28;20404;-82
2022/03/07 08:24:43;;;;;;;11.45;3.85;;;2.30;99.90;;;;;;5092802;28;20424;-82
2022/03/07 08:27:09;;;;;;;8.87;3.60;;;2.40;99.90;;;;;;5092956;28;20404;-82
2022/03/07 08:29:34;;;;;;;11.25;3.55;;;2.50;99.90;;;;;;5093740;28;20052;-82
2022/03/07 08:32:00;;;;;;;8.02;3.03;;;2.60;99.90;;;;;;5094059;28;20059;-83
2022/03/07 08:34:26;;;;;;;5.82;3.13;;;2.70;99.90;;;;;;5077321;28;20042;-83
2022/03/07 08:36:51;;;;;;;6.20;3.22;;;2.80;99.90;;;;;;5094245;28;20048;-83
2022/03/07 08:39:17;;;;;;;5.85;2.75;;;2.90;99.90;;;;;;5094094;28;20486;-83
2022/03/07 08:41:42;;;;;;;9.57;3.47;;;2.90;99.90;;;;;;5094071;28;20050;-83
2022/03/07 08:44:08;;;;;;;8.00;3.95;;;3.00;99.90;;;;;;5092719;28;20481;-83
2022/03/07 08:46:34;;;;;;;7.45;3.25;;;3.10;99.90;;;;;;5076768;28;20032;-83
2022/03/07 08:48:59;;;;;;;8.73;2.95;;;3.20;99.90;;;;;;5093997;28;20051;-83
2022/03/07 08:51:25;;;;;;;6.80;2.83;;;3.30;99.90;;;;;;5094158;28;20126;-83
2022/03/07 08:53:50;;;;;;;6.30;2.80;;;3.30;99.90;;;;;;5076793;28;20452;-83
2022/03/07 08:56:16;;;;;;;7.90;2.70;;;3.30;99.90;;;;;;5077141;28;20062;-83
2022/03/07 08:58:42;;;;;;;14.02;4.30;;;3.40;99.90;;;;;;5093539;28;20047;-83
2022/03/07 09:01:07;;;;;;;8.73;3.22;;;3.50;99.90;;;;;;5093548;28;20042;-84
2022/03/07 09:03:34;;;;;;;10.38;2.80;;;3.50;99.90;;;;;;5093295;28;20071;-83
2022/03/07 09:06:01;;;;;;;8.90;2.60;;;3.60;99.90;;;;;;5093324;28;20504;-83
2022/03/07 09:08:26;;;;;;;7.03;2.42;;;3.70;99.90;;;;;;5093340;28;20043;-83
2022/03/07 09:10:52;;;;;;;7.70;2.90;;;3.70;99.90;;;;;;5093542;28;20043;-83
2022/03/07 09:13:17;;;;;;;11.25;3.53;;;3.80;99.90;;;;;;5093256;28;20131;-83
2022/03/07 09:15:45;;;;;;;8.40;2.95;;;3.90;99.90;;;;;;5093691;28;20551;-82
2022/03/07 09:18:12;;;;;;;10.20;3.40;;;3.90;99.90;;;;;;5076806;28;20043;-83
2022/03/07 09:20:39;;;;;;;11.75;3.45;;;4.00;99.90;;;;;;5091842;28;20405;-83
2022/03/07 09:23:04;;;;;;;;;;;4.10;99.90;;;;;;5077051;28;20086;-83
2022/03/07 09:25:30;;;;;;;;;;;4.50;99.90;;;;;;5093544;28;19978;-83
2022/03/07 09:27:55;;;;;;;;;;;5.50;99.90;;;;;;5093474;28;19920;-84
2022/03/07 09:30:21;;;;;;;;;;;6.60;99.90;;;;;;5093447;28;19942;-84
2022/03/07 09:32:47;;;;;;;;;;;7.70;99.90;;;;;;5077087;28;20010;-84
2022/03/07 09:35:13;;;;;;;;;;;8.70;99.90;;;;;;5093210;28;19927;-82
2022/03/07 09:37:38;;;;;;;;;;;9.40;99.90;;;;;;5076345;28;19930;-83
2022/03/07 09:40:04;;;;;;;;;;;10.10;99.90;;;;;;5076366;28;19971;-82
2022/03/07 09:42:30;;;;;;;;;;;10.80;99.90;;;;;;5076541;28;19926;-83
2022/03/07 09:44:55;;;;;;;;;;;11.50;99.90;;;;;;5092727;28;19920;-82
2022/03/07 09:47:24;;;;;;;;;;;12.10;99.90;;;;;;5093264;28;19927;-83
2022/03/07 09:49:50;;;;;;;;;;;12.30;99.90;;;;;;5093130;28;19928;-83
2022/03/07 09:52:16;;;;;;;;;;;11.90;99.90;;;;;;5076468;28;20473;-83
2022/03/07 09:54:41;;;;;;;;;;;11.40;99.90;;;;;;5076013;28;19962;-82
2022/03/07 09:57:07;;;;;;;;;;;11.10;99.90;;;;;;5093136;28;19924;-83
2022/03/07 09:59:34;;;;;;;;;;;11.40;99.90;;;;;;5093063;28;19989;-83
2022/03/07 10:02:14;;;;;;;5.20;1.00;;;12.10;99.90;;;;;;5092353;28;19924;-83
2022/03/07 10:04:45;;;;;;;7.00;1.80;;;12.80;99.90;;;;;;5091312;28;20591;-83
2022/03/07 10:07:11;;;;;;;4.65;1.10;;;13.10;98.90;;;;;;5090979;28;20444;-83
2022/03/07 10:09:38;;;;;;;5.65;1.30;;;13.30;98.80;;;;;;5073923;28;20445;-83
2022/03/07 10:12:04;;;;;;;6.03;1.40;;;13.80;97.90;;;;;;5090775;28;20400;-83
2022/03/07 10:14:42;;;;;;;7.38;1.38;;;14.10;97.60;;;;;;5090524;28;20744;-83
2022/03/07 10:17:27;;;;;;;5.53;1.20;;;13.80;95.40;;;;;;5090859;28;20420;-83
2022/03/07 10:19:55;;;;;;;6.63;1.38;;;13.60;96.90;;;;;;5073935;28;20410;-83
2022/03/07 10:22:27;;;;;;;6.35;1.10;;;13.70;94.90;;;;;;5073937;28;20457;-83
2022/03/07 10:25:07;;;;;;;6.90;1.40;;;13.20;95.20;;;;;;5090328;28;20405;-83
2022/03/07 10:27:37;;;;;;;5.85;1.13;;;13.10;97.50;;;;;;5091637;28;20395;-83
2022/03/07 10:30:04;;;;;;;;;;;13.00;96.40;;;;;;5075162;28;20044;-83
2022/03/07 10:32:29;;;;;;;11.00;1.63;;;12.50;96.20;;;;;;5091385;28;19930;-82
2022/03/07 10:34:55;;;;;;;6.82;1.23;;;12.00;97.90;;;;;;5091079;28;20044;-82
2022/03/07 10:37:30;;;;;;;;;;;11.80;98.00;;;;;;5091481;28;20410;-82
2022/03/07 10:39:56;;;;;;;;;;;11.70;99.90;;;;;;5091114;28;20908;-83
2022/03/07 10:42:21;;;;;;;;;;;12.50;98.40;;;;;;5091553;28;19974;-83
2022/03/07 10:44:47;;;;;;;;;;;13.50;97.80;;;;;;5091352;28;19927;-83
2022/03/07 10:47:14;;;;;;;;;;;14.30;94.40;;;;;;5092178;28;19927;-83
2022/03/07 10:49:50;;;;;;;;;;;14.90;93.70;;;;;;5091116;28;19919;-83
2022/03/07 10:52:16;;;;;;;;;;;15.50;91.10;;;;;;5090852;28;19931;-83
2022/03/07 10:54:42;;;;;;;;;;;16.00;87.80;;;;;;5091231;28;19920;-83
2022/03/07 10:57:08;;;;;;;;;;;16.50;84.60;;;;;;5074086;28;20022;-83
2022/03/07 10:59:34;;;;;;;;;;;16.90;81.90;;;;;;5093785;28;19923;-83
2022/03/07 11:02:01;;;;;;;;;;;17.10;77.40;;;;;;5090608;28;20421;-84
2022/03/07 11:04:27;;;;;;;;;;;17.40;75.40;;;;;;5090786;28;19928;-83
2022/03/07 11:06:52;;;;;;;;;;;17.70;71.40;;;;;;5090809;28;20297;-83
2022/03/07 11:09:18;;;;;;;;;;;17.80;68.80;;;;;;5090922;28;19971;-83
2022/03/07 11:11:45;;;;;;;;;;;17.80;68.20;;;;;;5090738;28;19926;-83
2022/03/07 11:14:11;;;;;;;;;;;17.90;65.50;;;;;;5090415;28;20077;-83
2022/03/07 11:16:37;;;;;;;;;;;17.80;62.60;;;;;;5090623;28;20026;-83
2022/03/07 11:19:03;;;;;;;;;;;17.40;61.30;;;;;;5091024;28;19920;-83
2022/03/07 11:21:29;;;;;;;;;;;17.20;60.70;;;;;;5074140;28;19963;-82
2022/03/07 11:23:56;;;;;;;;;;;16.30;64.50;;;;;;5090448;28;19971;-83
2022/03/07 11:26:23;;;;;;;;;;;15.50;67.10;;;;;;5067160;28;20381;-83
2022/03/07 11:28:51;;;;;;;;;;;15.50;67.30;;;;;;5075434;28;19926;-83
2022/03/07 11:31:20;;;;;;;;;;;15.90;68.20;;;;;;5058782;28;19988;-83
2022/03/07 11:33:50;;;;;;;;;;;16.40;64.90;;;;;;5058940;28;19920;-82
2022/03/07 11:36:17;;;;;;;;;;;16.70;62.50;;;;;;5058711;28;19924;-83
2022/03/07 11:38:50;;;;;;;;;;;16.90;64.00;;;;;;5058871;28;19920;-83
2022/03/07 11:41:21;;;;;;;;;;;17.30;62.50;;;;;;5058816;28;20033;-83
2022/03/07 11:43:51;;;;;;;;;;;17.60;61.50;;;;;;5075006;28;19970;-83
2022/03/07 11:46:25;;;;;;;;;;;18.00;61.20;;;;;;5075431;28;19976;-83
2022/03/07 11:48:51;;;;;;;4.50;1.42;;;18.10;58.80;;;;;;5074928;28;19924;-83
2022/03/07 11:51:25;;;;;;;5.60;1.70;;;18.20;59.60;;;;;;5072950;28;20909;-83
2022/03/07 11:53:52;;;;;;;3.90;1.73;;;18.30;57.60;;;;;;5056333;28;20406;-83
2022/03/07 11:56:20;;;;;;;3.92;1.60;;;18.20;55.80;;;;;;5073302;28;20437;-83
2022/03/07 11:58:49;;;;;;;4.53;1.20;;;18.40;54.60;;;;;;5073248;28;20436;-82
2022/03/07 12:01:16;;;;;;;3.22;0.60;;;18.70;53.40;;;;;;5056542;28;20406;-83
2022/03/07 12:03:41;;;;;;;4.30;0.70;;;18.70;49.80;;;;;;5072989;28;20426;-82
2022/03/07 12:06:13;;;;;;;2.58;0.52;;;18.70;52.00;;;;;;5074436;28;20455;-83
2022/03/07 12:09:01;;;;;;;3.10;0.40;;;18.60;50.20;;;;;;5074359;28;20052;-82
2022/03/07 12:11:35;;;;;;;3.58;0.80;;;18.50;49.80;;;;;;5074323;28;20387;-82
2022/03/07 12:14:09;;;;;;;4.22;1.10;;;18.50;52.20;;;;;;5057404;28;20040;-82
2022/03/07 12:16:37;;;;;;;2.58;0.68;;;18.50;52.20;;;;;;5074129;28;20040;-82
2022/03/07 12:19:13;;;;;;;3.03;0.60;;;18.60;50.80;;;;;;5073676;28;20173;-83
2022/03/07 12:21:44;;;;;;;5.00;0.60;;;18.70;50.20;;;;;;5074368;28;20056;-82
2022/03/07 12:24:13;;;;;;;1.80;0.22;;;18.80;47.50;;;;;;5057920;28;20044;-82
2022/03/07 12:26:56;;;;;;;0.50;0.10;;;18.90;46.80;;;;;;5084050;28;20052;-83
2022/03/07 12:29:24;;;;;;;1.23;0.10;;;18.80;43.30;;;;;;5077498;28;20165;-82
2022/03/07 12:31:52;;;;;;;1.83;0.35;;;18.90;44.80;;;;;;5093806;28;20047;-82
2022/03/07 12:34:19;;;;;;;0.77;0.20;;;19.00;41.60;;;;;;5093851;28;20035;-83
2022/03/07 12:36:45;;;;;;;3.42;0.60;;;18.90;44.70;;;;;;5076789;28;20537;-82
2022/03/07 12:39:11;;;;;;;2.78;0.57;;;19.10;45.60;;;;;;5093715;28;20044;-82
2022/03/07 12:41:37;;;;;;;0.70;0.00;;;19.00;43.90;;;;;;5076822;28;20436;-82
2022/03/07 12:44:04;;;;;;;0.17;0.00;;;19.00;41.80;;;;;;5093857;28;20130;-82
2022/03/07 12:46:30;;;;;;;0.30;0.00;;;18.80;38.70;;;;;;5093764;28;20044;-82
2022/03/07 12:48:57;;;;;;;0.68;0.00;;;18.60;42.20;;;;;;5093990;28;20040;-82
2022/03/07 12:51:24;;;;;;;0.32;0.00;;;18.80;43.40;;;;;;5077242;28;20051;-83
2022/03/07 12:53:58;;;;;;;2.25;0.20;;;19.20;43.60;;;;;;5093531;28;20058;-82
2022/03/07 12:56:44;;;;;;;1.73;0.20;;;19.60;43.20;;;;;;5076741;28;20043;-82
2022/03/07 12:59:10;;;;;;;0.80;0.40;;;19.80;43.60;;;;;;5093795;28;20050;-82
2022/03/07 13:01:38;;;;;;;1.50;0.35;;;19.80;41.10;;;;;;5093625;28;20101;-82
2022/03/07 13:04:14;;;;;;;1.17;0.43;;;19.60;41.60;;;;;;5093919;28;20059;-82
2022/03/07 13:06:45;;;;;;;2.67;1.35;;;19.50;42.00;;;;;;5093713;28;20043;-82